Time;durP1;ratioP1;P1;durP2;ratioP2;P2;SDS_P1;SDS_P2;PMS_P1;PMS_P2;Temp;Humidity;BMP_temperature;BMP_pressure;BME280_temperature;BME280_humidity;BME280_pressure;Samples;Min_cycle;Max_cycle;Signal;HPM_P1;HPM_P2
2023/08/02 00:01:15;;;;;;;2.50;2.30;;;20.50;77.60;;;;;;5054402;28;20158;-86
2023/08/02 00:03:41;;;;;;;2.30;2.10;;;20.50;77.60;;;;;;5070822;28;20295;-85
2023/08/02 00:06:07;;;;;;;2.40;2.20;;;20.50;77.60;;;;;;5055536;28;20166;-86
2023/08/02 00:08:34;;;;;;;2.50;2.30;;;20.50;77.60;;;;;;5054126;28;20158;-84
2023/08/02 00:11:02;;;;;;;2.63;2.42;;;20.50;77.60;;;;;;5053915;28;20275;-83
2023/08/02 00:13:27;;;;;;;2.63;2.40;;;20.50;77.60;;;;;;5054918;28;20213;-85
2023/08/02 00:15:53;;;;;;;2.47;2.28;;;20.50;77.70;;;;;;5070819;28;20682;-84
2023/08/02 00:18:19;;;;;;;2.42;2.22;;;20.50;77.70;;;;;;5053982;28;20174;-84
2023/08/02 00:20:45;;;;;;;2.50;2.30;;;20.50;77.70;;;;;;5054010;28;20208;-83
2023/08/02 00:23:11;;;;;;;2.47;2.28;;;20.50;77.80;;;;;;5053903;28;20165;-84
2023/08/02 00:25:39;;;;;;;2.90;2.60;;;20.40;77.70;;;;;;5053957;28;20154;-84
2023/08/02 00:28:05;;;;;;;2.50;2.30;;;20.50;77.70;;;;;;5053757;28;20512;-85
2023/08/02 00:30:31;;;;;;;2.58;2.38;;;20.50;77.70;;;;;;5053777;28;20153;-84
2023/08/02 00:32:57;;;;;;;2.58;2.38;;;20.50;77.70;;;;;;5053583;28;20166;-86
2023/08/02 00:35:23;;;;;;;2.50;2.20;;;20.50;77.70;;;;;;5053598;28;20315;-84
2023/08/02 00:37:49;;;;;;;2.30;2.10;;;20.50;77.70;;;;;;5053579;28;20249;-86
2023/08/02 00:40:15;;;;;;;2.20;2.00;;;20.50;77.70;;;;;;5070195;28;20623;-84
2023/08/02 00:42:41;;;;;;;2.25;2.05;;;20.50;77.70;;;;;;5054626;28;20165;-87
2023/08/02 00:45:08;;;;;;;2.60;2.40;;;20.50;77.70;;;;;;5053538;28;20154;-84
2023/08/02 00:47:34;;;;;;;2.30;2.10;;;20.50;77.70;;;;;;5070312;28;20169;-84
2023/08/02 00:50:00;;;;;;;2.70;2.50;;;20.50;77.70;;;;;;5053283;28;20158;-83
2023/08/02 00:52:26;;;;;;;2.50;2.30;;;20.50;77.80;;;;;;5069940;28;20165;-83
2023/08/02 00:54:53;;;;;;;2.70;2.50;;;20.50;77.70;;;;;;5053193;28;20199;-85
2023/08/02 00:57:20;;;;;;;2.58;2.38;;;20.50;77.80;;;;;;5053222;28;20157;-86
2023/08/02 00:59:46;;;;;;;2.50;2.30;;;20.50;77.80;;;;;;5053522;28;20146;-84
2023/08/02 01:02:12;;;;;;;2.58;2.38;;;20.50;77.70;;;;;;5054234;28;20166;-85
2023/08/02 01:04:38;;;;;;;2.67;2.47;;;20.50;77.80;;;;;;5053146;28;20660;-83
2023/08/02 01:07:28;;;;;;;2.58;2.38;;;20.40;77.70;;;;;;5054254;28;20177;-84
2023/08/02 01:10:17;;;;;;;2.95;2.60;;;20.50;77.90;;;;;;5052926;28;20248;-84
2023/08/02 01:12:44;;;;;;;2.30;2.10;;;20.50;77.80;;;;;;5069403;28;20170;-86
2023/08/02 01:15:10;;;;;;;2.42;2.22;;;20.50;77.80;;;;;;5052803;28;20198;-84
2023/08/02 01:17:36;;;;;;;2.25;2.05;;;20.40;77.80;;;;;;5054058;28;20173;-84
2023/08/02 01:20:04;;;;;;;3.03;2.13;;;20.50;77.80;;;;;;5069674;28;20154;-83
2023/08/02 01:22:30;;;;;;;2.63;2.42;;;20.50;77.80;;;;;;5069883;28;20169;-86
2023/08/02 01:24:59;;;;;;;2.50;2.30;;;20.50;77.80;;;;;;5069234;28;20166;-85
2023/08/02 01:27:28;;;;;;;2.22;2.03;;;20.40;77.80;;;;;;5051983;28;20509;-82
2023/08/02 01:29:54;;;;;;;2.72;2.53;;;20.50;77.80;;;;;;5052612;28;20158;-83
2023/08/02 01:32:21;;;;;;;2.40;2.20;;;20.40;77.80;;;;;;5069155;28;20154;-83
2023/08/02 01:34:47;;;;;;;2.42;2.22;;;20.40;77.80;;;;;;5053732;28;20150;-86
2023/08/02 01:37:13;;;;;;;2.25;2.05;;;20.40;77.80;;;;;;5052467;28;20158;-86
2023/08/02 01:39:39;;;;;;;2.50;2.30;;;20.50;77.80;;;;;;5052725;28;20154;-85
2023/08/02 01:42:05;;;;;;;2.40;2.20;;;20.40;77.80;;;;;;5068964;28;20208;-86
2023/08/02 01:44:31;;;;;;;2.42;2.22;;;20.50;77.90;;;;;;5052985;28;20158;-85
2023/08/02 01:46:57;;;;;;;2.42;2.22;;;20.40;77.90;;;;;;5052295;28;20154;-84
2023/08/02 01:49:23;;;;;;;2.55;2.20;;;20.40;77.80;;;;;;5053696;28;20496;-85
2023/08/02 01:51:49;;;;;;;2.30;2.10;;;20.50;77.80;;;;;;5052326;28;20154;-85
2023/08/02 01:54:15;;;;;;;3.30;2.67;;;20.40;77.80;;;;;;5052233;28;20212;-85
2023/08/02 01:56:41;;;;;;;2.60;2.40;;;20.40;77.80;;;;;;5068799;28;20728;-85
2023/08/02 01:59:07;;;;;;;2.40;2.20;;;20.40;77.90;;;;;;5053365;28;20146;-84
2023/08/02 02:01:33;;;;;;;2.45;2.25;;;20.40;77.80;;;;;;5052135;28;20163;-84
2023/08/02 02:03:59;;;;;;;2.40;2.20;;;20.40;77.80;;;;;;5069550;28;20158;-85
2023/08/02 02:06:25;;;;;;;2.38;2.17;;;20.40;77.90;;;;;;5053235;28;20158;-85
2023/08/02 02:08:52;;;;;;;2.30;2.10;;;20.40;77.90;;;;;;5052303;28;20157;-84
2023/08/02 02:11:17;;;;;;;2.38;2.17;;;20.40;77.90;;;;;;5051925;28;20635;-87
2023/08/02 02:13:43;;;;;;;2.60;2.40;;;20.40;77.90;;;;;;5053117;28;20166;-86
2023/08/02 02:16:09;;;;;;;2.20;2.00;;;20.40;77.80;;;;;;5051825;28;20206;-83
2023/08/02 02:18:35;;;;;;;2.55;2.30;;;20.40;77.80;;;;;;5051895;28;20170;-84
2023/08/02 02:21:01;;;;;;;2.70;2.50;;;20.40;77.90;;;;;;5053409;28;20162;-83
2023/08/02 02:23:27;;;;;;;2.65;2.45;;;20.40;77.80;;;;;;5053117;28;20529;-85
2023/08/02 02:25:53;;;;;;;3.38;2.50;;;20.40;77.90;;;;;;5053119;28;20162;-85
2023/08/02 02:28:19;;;;;;;2.63;2.42;;;20.40;77.90;;;;;;5051874;28;20189;-86
2023/08/02 02:30:45;;;;;;;2.60;2.40;;;20.40;78.00;;;;;;5051907;28;20609;-84
2023/08/02 02:33:11;;;;;;;2.30;2.10;;;20.40;77.90;;;;;;5053159;28;20174;-85
2023/08/02 02:35:37;;;;;;;2.40;2.20;;;20.40;77.90;;;;;;5068336;28;20206;-83
2023/08/02 02:38:03;;;;;;;2.40;2.15;;;20.40;78.00;;;;;;5052876;28;20173;-86
2023/08/02 02:40:29;;;;;;;2.90;2.60;;;20.40;78.00;;;;;;5072535;28;20594;-86
2023/08/02 02:42:55;;;;;;;2.40;2.20;;;20.40;78.00;;;;;;5055658;28;20167;-84
2023/08/02 02:45:21;;;;;;;2.55;2.30;;;20.40;78.00;;;;;;5055741;28;20323;-85
2023/08/02 02:47:47;;;;;;;2.40;2.20;;;20.40;78.00;;;;;;5056904;28;20173;-86
2023/08/02 02:50:13;;;;;;;2.30;2.10;;;20.40;78.00;;;;;;5055714;28;20182;-83
2023/08/02 02:52:41;;;;;;;2.58;2.38;;;20.40;78.00;;;;;;5055664;28;20150;-85
2023/08/02 02:55:08;;;;;;;2.35;2.15;;;20.40;78.00;;;;;;5055749;28;20201;-84
2023/08/02 02:57:34;;;;;;;2.63;2.40;;;20.40;78.00;;;;;;5055590;28;20161;-86
2023/08/02 03:00:00;;;;;;;2.25;2.00;;;20.40;78.10;;;;;;5056982;28;20158;-84
2023/08/02 03:02:26;;;;;;;2.70;2.40;;;20.40;78.10;;;;;;5055961;28;20499;-86
2023/08/02 03:04:52;;;;;;;2.30;2.10;;;20.30;78.10;;;;;;5055212;28;20177;-86
2023/08/02 03:07:18;;;;;;;2.20;2.00;;;20.40;78.10;;;;;;5071951;28;20162;-85
2023/08/02 03:09:44;;;;;;;2.35;2.15;;;20.40;78.10;;;;;;5056167;28;20253;-85
2023/08/02 03:12:10;;;;;;;2.35;2.15;;;20.40;78.10;;;;;;5055165;28;20227;-83
2023/08/02 03:14:35;;;;;;;2.47;2.28;;;20.30;78.00;;;;;;5056281;28;20146;-85
2023/08/02 03:17:01;;;;;;;2.42;2.22;;;20.40;78.10;;;;;;5056308;28;20198;-83
2023/08/02 03:19:27;;;;;;;2.30;2.10;;;20.30;78.10;;;;;;5072075;28;20174;-84
2023/08/02 03:21:53;;;;;;;2.50;2.30;;;20.40;78.10;;;;;;5055002;28;20164;-84
2023/08/02 03:24:19;;;;;;;2.55;2.10;;;20.40;78.10;;;;;;5071600;28;20165;-84
2023/08/02 03:26:45;;;;;;;2.80;2.50;;;20.40;78.10;;;;;;5055200;28;20182;-82
2023/08/02 03:29:11;;;;;;;2.60;2.40;;;20.40;78.20;;;;;;5056091;28;20228;-85
2023/08/02 03:31:37;;;;;;;2.63;2.20;;;20.30;78.10;;;;;;5054808;28;20162;-85
2023/08/02 03:34:03;;;;;;;2.35;2.15;;;20.40;78.10;;;;;;5054800;28;20155;-85
2023/08/02 03:36:29;;;;;;;2.38;2.17;;;20.40;78.10;;;;;;5056133;28;20196;-84
2023/08/02 03:38:55;;;;;;;2.40;2.20;;;20.40;78.10;;;;;;5054895;28;20176;-85
2023/08/02 03:41:21;;;;;;;2.60;2.40;;;20.40;78.10;;;;;;5055853;28;20154;-84
2023/08/02 03:43:46;;;;;;;2.45;2.25;;;20.40;78.10;;;;;;5054794;28;20213;-84
2023/08/02 03:46:12;;;;;;;2.30;2.10;;;20.40;78.10;;;;;;5055742;28;20158;-85
2023/08/02 03:48:39;;;;;;;2.65;2.45;;;20.30;78.10;;;;;;5071137;28;20226;-83
2023/08/02 03:51:05;;;;;;;2.22;2.03;;;20.40;78.10;;;;;;5055171;28;20609;-86
2023/08/02 03:53:31;;;;;;;2.50;2.30;;;20.40;78.10;;;;;;5054494;28;20241;-84
2023/08/02 03:55:57;;;;;;;2.50;2.30;;;20.40;78.20;;;;;;5054697;28;20194;-84
2023/08/02 03:58:23;;;;;;;2.40;2.20;;;20.40;78.10;;;;;;5071045;28;20530;-83
2023/08/02 04:00:49;;;;;;;2.58;2.38;;;20.40;78.10;;;;;;5071111;28;20155;-84
2023/08/02 04:03:15;;;;;;;2.90;2.70;;;20.40;78.10;;;;;;5071182;28;20575;-84
2023/08/02 04:05:41;;;;;;;2.58;2.10;;;20.30;78.10;;;;;;5054273;28;20223;-84
2023/08/02 04:08:07;;;;;;;2.60;2.40;;;20.40;78.10;;;;;;5055371;28;20605;-86
2023/08/02 04:10:37;;;;;;;2.40;2.20;;;20.40;78.10;;;;;;5070694;28;20236;-86
2023/08/02 04:13:03;;;;;;;2.50;2.30;;;20.30;78.10;;;;;;5054084;28;20200;-85
2023/08/02 04:15:33;;;;;;;2.30;2.10;;;20.40;78.10;;;;;;5055219;28;20209;-85
2023/08/02 04:17:59;;;;;;;2.33;2.10;;;20.30;78.10;;;;;;5054195;28;20174;-84
2023/08/02 04:20:25;;;;;;;2.50;2.30;;;20.40;78.10;;;;;;5055091;28;20161;-85
2023/08/02 04:22:51;;;;;;;2.40;2.20;;;20.40;78.20;;;;;;5055204;28;20162;-84
2023/08/02 04:25:17;;;;;;;2.40;2.20;;;20.30;78.10;;;;;;5054124;28;20257;-85
2023/08/02 04:27:43;;;;;;;2.35;2.15;;;20.30;78.20;;;;;;5053863;28;20241;-85
2023/08/02 04:30:10;;;;;;;2.35;2.15;;;20.40;78.20;;;;;;5055045;28;20176;-84
2023/08/02 04:32:36;;;;;;;2.92;2.25;;;20.40;78.20;;;;;;5054908;28;20618;-85
2023/08/02 04:35:02;;;;;;;2.35;2.15;;;20.40;78.20;;;;;;5053498;28;20557;-85
2023/08/02 04:37:28;;;;;;;2.47;2.28;;;20.30;78.10;;;;;;5054130;28;20271;-86
2023/08/02 04:39:54;;;;;;;2.60;2.40;;;20.40;78.10;;;;;;5054841;28;20154;-85
2023/08/02 04:42:20;;;;;;;2.30;2.10;;;20.30;78.00;;;;;;5053590;28;20155;-84
2023/08/02 04:44:46;;;;;;;2.50;2.30;;;20.40;78.10;;;;;;5053464;28;20521;-87
2023/08/02 04:47:12;;;;;;;2.30;2.10;;;20.40;78.10;;;;;;5054576;28;20532;-84
2023/08/02 04:49:38;;;;;;;2.40;2.20;;;20.40;78.10;;;;;;5053656;28;20158;-85
2023/08/02 04:52:09;;;;;;;2.08;1.98;;;20.40;78.10;;;;;;5054496;28;20186;-86
2023/08/02 04:54:34;;;;;;;2.50;2.30;;;20.40;78.10;;;;;;5052702;28;20260;-84
2023/08/02 04:57:00;;;;;;;2.47;2.28;;;20.30;78.00;;;;;;5054528;28;20344;-85
2023/08/02 04:59:26;;;;;;;2.17;2.00;;;20.40;78.00;;;;;;5054328;28;20208;-86
2023/08/02 05:01:52;;;;;;;2.20;2.00;;;20.40;78.10;;;;;;5052053;28;20154;-84
2023/08/02 05:04:18;;;;;;;2.60;2.40;;;20.40;78.10;;;;;;5053634;28;20190;-86
2023/08/02 05:06:44;;;;;;;2.28;2.08;;;20.40;78.10;;;;;;5054266;28;20192;-85
2023/08/02 05:09:11;;;;;;;2.25;2.05;;;20.40;78.10;;;;;;5053262;28;20186;-85
2023/08/02 05:11:40;;;;;;;2.40;2.20;;;20.40;78.10;;;;;;5052888;28;20214;-86
2023/08/02 05:14:06;;;;;;;2.17;1.98;;;20.30;78.10;;;;;;5053019;28;20574;-86
2023/08/02 05:16:31;;;;;;;2.60;2.40;;;20.40;78.10;;;;;;5052811;28;20243;-84
2023/08/02 05:18:57;;;;;;;2.13;1.92;;;20.40;78.10;;;;;;5052820;28;20154;-87
2023/08/02 05:21:23;;;;;;;2.40;2.20;;;20.40;78.10;;;;;;5054112;28;20240;-84
2023/08/02 05:23:49;;;;;;;2.40;2.20;;;20.30;78.10;;;;;;5054135;28;20592;-83
2023/08/02 05:26:15;;;;;;;2.20;2.00;;;20.40;78.10;;;;;;5053463;28;20524;-84
2023/08/02 05:28:41;;;;;;;2.50;2.30;;;20.40;78.20;;;;;;5052802;28;20162;-84
2023/08/02 05:31:11;;;;;;;2.35;2.15;;;20.40;78.20;;;;;;5069222;28;20644;-85
2023/08/02 05:33:37;;;;;;;2.47;2.28;;;20.40;78.20;;;;;;5052626;28;20170;-85
2023/08/02 05:36:03;;;;;;;2.85;2.10;;;20.30;78.10;;;;;;5052758;28;20217;-85
2023/08/02 05:38:30;;;;;;;2.80;2.17;;;20.40;78.20;;;;;;5069214;28;20205;-84
2023/08/02 05:41:01;;;;;;;2.40;2.20;;;20.40;78.20;;;;;;5053616;28;20151;-86
2023/08/02 05:43:27;;;;;;;2.40;2.20;;;20.40;78.30;;;;;;5052819;28;20609;-85
2023/08/02 05:45:53;;;;;;;2.30;1.98;;;20.40;78.70;;;;;;5053556;28;20189;-85
2023/08/02 05:48:19;;;;;;;2.03;1.83;;;20.40;79.10;;;;;;5052502;28;20167;-87
2023/08/02 05:50:45;;;;;;;2.30;2.10;;;20.40;79.30;;;;;;5053823;28;20237;-86
2023/08/02 05:53:11;;;;;;;2.40;2.20;;;20.50;79.50;;;;;;5069089;28;20602;-85
2023/08/02 05:55:37;;;;;;;1.88;1.77;;;20.40;79.70;;;;;;5052118;28;20676;-84
2023/08/02 05:58:03;;;;;;;2.00;1.83;;;20.50;80.10;;;;;;5052221;28;20216;-83
2023/08/02 06:00:29;;;;;;;1.88;1.77;;;20.50;80.10;;;;;;5068818;28;20165;-85
2023/08/02 06:02:55;;;;;;;1.77;1.67;;;20.40;80.40;;;;;;5068751;28;20533;-87
2023/08/02 06:05:21;;;;;;;2.20;2.00;;;20.40;80.90;;;;;;5052152;28;20157;-84
2023/08/02 06:07:47;;;;;;;1.90;1.80;;;20.40;80.90;;;;;;5052092;28;20162;-87
2023/08/02 06:10:13;;;;;;;1.95;1.83;;;20.40;81.20;;;;;;5068383;28;20225;-86
2023/08/02 06:12:39;;;;;;;1.85;1.75;;;20.40;81.60;;;;;;5051658;28;20170;-84
2023/08/02 06:15:05;;;;;;;2.10;1.90;;;20.40;81.40;;;;;;5053393;28;20198;-86
2023/08/02 06:17:31;;;;;;;1.80;1.70;;;20.40;81.60;;;;;;5052042;28;20287;-84
2023/08/02 06:19:57;;;;;;;1.90;1.80;;;20.40;82.10;;;;;;5053069;28;20630;-83
2023/08/02 06:22:23;;;;;;;1.60;1.50;;;20.40;82.10;;;;;;5053306;28;20177;-86
2023/08/02 06:24:49;;;;;;;1.67;1.58;;;20.30;81.90;;;;;;5053162;28;20225;-83
2023/08/02 06:27:15;;;;;;;2.00;1.90;;;20.30;82.30;;;;;;5068850;28;20173;-83
2023/08/02 06:29:41;;;;;;;1.90;1.80;;;20.40;82.20;;;;;;5069135;28;20596;-85
2023/08/02 06:32:07;;;;;;;2.05;1.85;;;20.40;82.50;;;;;;5051771;28;20162;-87
2023/08/02 06:34:33;;;;;;;1.73;1.63;;;20.40;83.00;;;;;;5052092;28;20165;-84
2023/08/02 06:36:59;;;;;;;2.10;1.90;;;20.40;83.10;;;;;;5052525;28;20537;-86
2023/08/02 06:39:25;;;;;;;1.80;1.70;;;20.40;83.30;;;;;;5051701;28;20170;-85
2023/08/02 06:41:51;;;;;;;2.00;1.80;;;20.30;83.40;;;;;;5053160;28;20190;-84
2023/08/02 06:44:18;;;;;;;1.75;1.65;;;20.40;83.50;;;;;;5052844;28;20165;-83
2023/08/02 06:46:44;;;;;;;1.70;1.60;;;20.40;83.50;;;;;;5052940;28;20154;-85
2023/08/02 06:49:09;;;;;;;1.50;1.40;;;20.40;83.50;;;;;;5068362;28;20169;-84
2023/08/02 06:51:35;;;;;;;1.83;1.70;;;20.40;83.40;;;;;;5051843;28;20216;-83
2023/08/02 06:54:01;;;;;;;2.10;1.90;;;20.40;83.70;;;;;;5068602;28;20573;-84
2023/08/02 06:56:27;;;;;;;1.88;1.77;;;20.40;83.60;;;;;;5052739;28;20186;-85
2023/08/02 06:58:53;;;;;;;2.00;1.90;;;20.40;83.60;;;;;;5051661;28;20529;-87
2023/08/02 07:01:21;;;;;;;1.75;1.65;;;20.50;83.90;;;;;;5051608;28;20605;-87
2023/08/02 07:03:47;;;;;;;1.75;1.65;;;20.40;83.80;;;;;;5051934;28;20664;-84
2023/08/02 07:06:14;;;;;;;1.60;1.50;;;20.40;84.00;;;;;;5051475;28;20163;-83
2023/08/02 07:08:41;;;;;;;1.75;1.65;;;20.50;84.00;;;;;;5051547;28;20162;-84
2023/08/02 07:11:07;;;;;;;2.05;1.85;;;20.50;84.10;;;;;;5051372;28;20557;-85
2023/08/02 07:13:33;;;;;;;1.80;1.70;;;20.40;84.00;;;;;;5052816;28;20237;-84
2023/08/02 07:16:00;;;;;;;1.50;1.40;;;20.50;84.20;;;;;;5051342;28;20182;-85
2023/08/02 07:18:26;;;;;;;2.08;1.88;;;20.40;84.30;;;;;;5052643;28;20162;-83
2023/08/02 07:20:52;;;;;;;1.60;1.50;;;20.40;84.40;;;;;;5052547;28;20169;-85
2023/08/02 07:23:18;;;;;;;2.05;1.83;;;20.50;84.90;;;;;;5068014;28;20166;-87
2023/08/02 07:25:44;;;;;;;1.80;1.70;;;20.50;84.90;;;;;;5053814;28;20174;-85
2023/08/02 07:28:10;;;;;;;1.90;1.80;;;20.50;84.60;;;;;;5054932;28;20211;-85
2023/08/02 07:30:36;;;;;;;1.73;1.63;;;20.40;84.70;;;;;;5054848;28;20257;-84
2023/08/02 07:33:02;;;;;;;1.73;1.60;;;20.50;84.60;;;;;;5054827;28;20173;-85
2023/08/02 07:35:28;;;;;;;1.80;1.70;;;20.50;84.70;;;;;;5054654;28;20643;-84
2023/08/02 07:37:54;;;;;;;1.88;1.77;;;20.40;84.80;;;;;;5055947;28;20276;-86
2023/08/02 07:40:20;;;;;;;1.90;1.80;;;20.50;84.80;;;;;;5055949;28;20164;-86
2023/08/02 07:42:45;;;;;;;2.00;1.80;;;20.50;84.70;;;;;;5055800;28;20190;-85
2023/08/02 07:45:12;;;;;;;1.67;1.58;;;20.50;84.90;;;;;;5054878;28;20169;-84
2023/08/02 07:47:38;;;;;;;1.83;1.73;;;20.50;85.00;;;;;;5054775;28;20247;-85
2023/08/02 07:50:05;;;;;;;1.80;1.70;;;20.40;85.20;;;;;;5055690;28;20157;-84
2023/08/02 07:52:31;;;;;;;1.90;1.80;;;20.50;85.20;;;;;;5054443;28;20166;-84
2023/08/02 07:54:57;;;;;;;1.70;1.60;;;20.50;85.30;;;;;;5054303;28;20540;-84
2023/08/02 07:57:25;;;;;;;1.95;1.85;;;20.60;85.30;;;;;;5054321;28;20213;-86
2023/08/02 07:59:52;;;;;;;2.15;1.95;;;20.60;85.00;;;;;;5055701;28;20150;-84
2023/08/02 08:02:18;;;;;;;1.75;1.65;;;20.50;84.90;;;;;;5054170;28;20150;-84
2023/08/02 08:04:44;;;;;;;2.63;1.85;;;20.50;84.80;;;;;;5054564;28;20161;-84
2023/08/02 08:07:10;;;;;;;1.88;1.73;;;20.50;84.80;;;;;;5070977;28;20162;-83
2023/08/02 08:09:35;;;;;;;1.90;1.80;;;20.50;85.50;;;;;;5070669;28;20166;-83
2023/08/02 08:12:04;;;;;;;1.90;1.80;;;20.60;85.70;;;;;;5054100;28;20261;-85
2023/08/02 08:14:30;;;;;;;1.73;1.60;;;20.60;85.90;;;;;;5055396;28;20166;-85
2023/08/02 08:16:58;;;;;;;2.10;1.90;;;20.60;85.90;;;;;;5054118;28;20201;-83
2023/08/02 08:19:25;;;;;;;1.83;1.67;;;20.60;86.00;;;;;;5055573;28;20157;-84
2023/08/02 08:21:51;;;;;;;1.90;1.80;;;20.60;85.80;;;;;;5054219;28;20151;-83
2023/08/02 08:24:21;;;;;;;1.90;1.80;;;20.60;86.20;;;;;;5054080;28;20158;-86
2023/08/02 08:26:47;;;;;;;1.75;1.65;;;20.60;86.10;;;;;;5053550;28;20181;-85
2023/08/02 08:29:13;;;;;;;1.80;1.70;;;20.60;86.20;;;;;;5055156;28;20609;-83
2023/08/02 08:31:39;;;;;;;1.58;1.48;;;20.60;85.80;;;;;;5053921;28;20158;-85
2023/08/02 08:34:05;;;;;;;2.10;1.90;;;20.60;85.80;;;;;;5055074;28;20151;-86
2023/08/02 08:36:31;;;;;;;1.80;1.70;;;20.60;85.70;;;;;;5053645;28;20190;-85
2023/08/02 08:38:57;;;;;;;1.67;1.58;;;20.60;85.60;;;;;;5055077;28;20556;-84
2023/08/02 08:41:23;;;;;;;2.25;1.90;;;20.60;85.40;;;;;;5053989;28;20657;-86
2023/08/02 08:43:53;;;;;;;2.08;1.90;;;20.60;85.30;;;;;;5057546;28;20154;-86
2023/08/02 08:46:19;;;;;;;1.88;1.77;;;20.70;85.20;;;;;;5055859;28;20193;-86
2023/08/02 08:48:45;;;;;;;1.80;1.70;;;20.60;85.10;;;;;;5057311;28;20154;-85
2023/08/02 08:51:12;;;;;;;1.75;1.65;;;20.70;84.80;;;;;;5057277;28;20219;-83
2023/08/02 08:53:42;;;;;;;1.48;1.38;;;20.70;84.50;;;;;;5055959;28;20159;-83
2023/08/02 08:56:08;;;;;;;1.88;1.77;;;20.70;84.10;;;;;;5054768;28;20611;-84
2023/08/02 08:58:36;;;;;;;1.80;1.70;;;20.80;84.00;;;;;;5072171;28;20158;-84
2023/08/02 09:01:03;;;;;;;2.00;1.80;;;20.80;84.00;;;;;;5055135;28;20184;-83
2023/08/02 09:03:29;;;;;;;1.80;1.70;;;20.80;83.80;;;;;;5055084;28;20233;-85
2023/08/02 09:06:00;;;;;;;2.20;2.00;;;20.80;83.70;;;;;;5071771;28;20202;-84
2023/08/02 09:08:26;;;;;;;1.85;1.75;;;20.90;83.50;;;;;;5072115;28;20219;-84
2023/08/02 09:10:52;;;;;;;1.67;1.58;;;20.90;83.30;;;;;;5071945;28;20338;-86
2023/08/02 09:13:27;;;;;;;1.75;1.65;;;20.90;83.10;;;;;;5054705;28;20625;-86
2023/08/02 09:16:09;;;;;;;4.00;1.90;;;20.90;83.10;;;;;;5054792;28;20312;-84
2023/08/02 09:18:40;;;;;;;1.63;1.52;;;20.80;83.20;;;;;;5056342;28;20170;-84
2023/08/02 09:21:07;;;;;;;1.58;1.48;;;20.90;83.20;;;;;;5054863;28;20162;-83
2023/08/02 09:23:32;;;;;;;1.98;1.88;;;20.90;83.20;;;;;;5052809;28;20251;-85
2023/08/02 09:26:09;;;;;;;1.60;1.50;;;20.80;82.70;;;;;;5055269;28;20198;-85
2023/08/02 09:28:35;;;;;;;1.80;1.70;;;20.80;82.50;;;;;;5054586;28;20225;-84
2023/08/02 09:31:16;;;;;;;1.50;1.40;;;20.90;82.50;;;;;;5053515;28;20172;-85
2023/08/02 09:33:50;;;;;;;3.58;1.80;;;20.90;82.30;;;;;;5054331;28;20605;-83
2023/08/02 09:36:29;;;;;;;2.28;2.08;;;20.90;82.20;;;;;;5055881;28;20664;-84
2023/08/02 09:39:01;;;;;;;1.67;1.58;;;20.90;82.20;;;;;;5056141;28;20589;-85
2023/08/02 09:41:27;;;;;;;1.52;1.42;;;21.00;82.20;;;;;;5054238;28;20258;-85
2023/08/02 09:43:52;;;;;;;1.70;1.60;;;20.90;82.20;;;;;;5053720;28;20243;-85
2023/08/02 09:46:24;;;;;;;2.00;1.80;;;20.80;82.10;;;;;;5053910;28;20161;-84
2023/08/02 09:48:50;;;;;;;1.75;1.65;;;20.90;82.20;;;;;;5052946;28;20156;-85
2023/08/02 09:51:16;;;;;;;1.88;1.77;;;20.90;82.10;;;;;;5054077;28;20516;-85
2023/08/02 09:53:55;;;;;;;1.70;1.60;;;20.90;82.30;;;;;;5068987;28;20166;-84
2023/08/02 09:56:23;;;;;;;1.60;1.50;;;20.90;82.10;;;;;;5053813;28;20251;-84
2023/08/02 09:58:50;;;;;;;1.98;1.80;;;20.90;82.00;;;;;;5052259;28;20170;-85
2023/08/02 10:01:16;;;;;;;1.52;1.42;;;20.80;82.10;;;;;;5052144;28;20554;-85
2023/08/02 10:03:42;;;;;;;1.63;1.52;;;20.90;81.80;;;;;;5068771;28;20170;-85
2023/08/02 10:06:08;;;;;;;1.70;1.60;;;20.90;81.60;;;;;;5052167;28;20163;-85
2023/08/02 10:08:34;;;;;;;1.83;1.70;;;20.90;81.60;;;;;;5053451;28;20613;-84
2023/08/02 10:11:00;;;;;;;1.60;1.50;;;20.90;81.40;;;;;;5051942;28;20245;-86
2023/08/02 10:13:26;;;;;;;1.60;1.50;;;20.90;81.10;;;;;;5053337;28;20643;-85
2023/08/02 10:15:52;;;;;;;1.33;1.23;;;20.90;81.10;;;;;;5053505;28;20300;-84
2023/08/02 10:18:18;;;;;;;1.83;1.73;;;21.00;80.90;;;;;;5053243;28;20220;-85
2023/08/02 10:20:46;;;;;;;1.52;1.42;;;20.90;80.90;;;;;;5053498;28;20141;-85
2023/08/02 10:23:12;;;;;;;1.60;1.50;;;20.90;80.90;;;;;;5053176;28;20153;-84
2023/08/02 10:25:38;;;;;;;1.60;1.50;;;20.90;80.70;;;;;;5052103;28;20162;-86
2023/08/02 10:28:04;;;;;;;1.90;1.45;;;20.90;80.60;;;;;;5069167;28;20158;-87
2023/08/02 10:30:30;;;;;;;1.30;1.20;;;20.90;80.60;;;;;;5052058;28;20150;-86
2023/08/02 10:33:13;;;;;;;1.60;1.50;;;21.00;80.30;;;;;;5053123;28;20157;-85
2023/08/02 10:35:59;;;;;;;1.50;1.40;;;20.90;80.30;;;;;;5051721;28;20200;-83
2023/08/02 10:38:38;;;;;;;1.50;1.40;;;20.90;80.10;;;;;;5051761;28;20154;-85
2023/08/02 10:41:12;;;;;;;1.58;1.48;;;21.00;80.00;;;;;;5068911;28;20257;-85
2023/08/02 10:44:13;;;;;;;1.35;1.25;;;21.00;80.00;;;;;;5051904;28;20154;-84
2023/08/02 10:46:39;;;;;;;1.67;1.58;;;20.90;79.90;;;;;;5053123;28;20166;-86
2023/08/02 10:49:26;;;;;;;1.63;1.52;;;20.90;79.80;;;;;;5051693;28;20212;-86
2023/08/02 10:51:53;;;;;;;1.70;1.60;;;20.90;80.10;;;;;;5068854;28;20162;-85
2023/08/02 10:54:21;;;;;;;1.50;1.40;;;20.90;80.20;;;;;;5052214;28;20170;-85
2023/08/02 10:57:15;;;;;;;1.60;1.50;;;20.90;79.80;;;;;;5053587;28;20194;-86
2023/08/02 10:59:41;;;;;;;1.48;1.38;;;20.90;79.70;;;;;;5056429;28;20257;-84
2023/08/02 11:02:09;;;;;;;1.63;1.52;;;21.00;79.80;;;;;;5056019;28;20284;-83
2023/08/02 11:04:37;;;;;;;1.52;1.40;;;20.90;79.50;;;;;;5072343;28;20180;-85
2023/08/02 11:07:21;;;;;;;1.45;1.35;;;20.90;79.30;;;;;;5055621;28;20174;-86
2023/08/02 11:09:47;;;;;;;1.38;1.27;;;21.00;79.20;;;;;;5055084;28;20226;-86
2023/08/02 11:12:15;;;;;;;1.40;1.30;;;20.90;79.20;;;;;;5055351;28;20651;-85
2023/08/02 11:14:42;;;;;;;1.48;1.38;;;21.00;79.20;;;;;;5055728;28;20190;-84
2023/08/02 11:17:08;;;;;;;1.42;1.35;;;21.00;78.90;;;;;;5056339;28;20258;-87
2023/08/02 11:19:35;;;;;;;1.58;1.48;;;21.00;78.80;;;;;;5055603;28;20555;-84
2023/08/02 11:22:01;;;;;;;1.42;1.33;;;21.00;78.50;;;;;;5054998;28;20540;-85
2023/08/02 11:24:27;;;;;;;1.42;1.33;;;21.00;78.20;;;;;;5056189;28;20520;-86
2023/08/02 11:26:58;;;;;;;1.50;1.40;;;21.00;78.40;;;;;;5055355;28;20567;-83
2023/08/02 11:29:24;;;;;;;1.33;1.23;;;21.00;78.20;;;;;;5055384;28;20237;-84
2023/08/02 11:31:52;;;;;;;1.73;1.63;;;21.00;77.80;;;;;;5057655;28;20150;-86
2023/08/02 11:34:18;;;;;;;1.30;1.20;;;21.00;77.80;;;;;;5056423;28;20212;-83
2023/08/02 11:36:46;;;;;;;1.38;1.27;;;21.00;77.90;;;;;;5056223;28;20194;-85
2023/08/02 11:39:16;;;;;;;1.35;1.25;;;21.00;78.00;;;;;;5072636;28;20181;-84
2023/08/02 11:41:42;;;;;;;1.20;1.10;;;21.00;78.00;;;;;;5056103;28;20158;-85
2023/08/02 11:44:18;;;;;;;1.58;1.48;;;21.00;77.90;;;;;;5056789;28;20214;-85
2023/08/02 11:46:53;;;;;;;1.25;1.15;;;21.00;78.00;;;;;;5057261;28;20259;-84
2023/08/02 11:49:20;;;;;;;1.60;1.50;;;21.00;78.80;;;;;;5057073;28;20160;-85
2023/08/02 11:51:46;;;;;;;1.50;1.40;;;21.00;77.90;;;;;;5056056;28;20150;-86
2023/08/02 11:54:12;;;;;;;1.33;1.23;;;21.00;77.80;;;;;;5057220;28;20640;-84
2023/08/02 11:56:38;;;;;;;1.45;1.35;;;21.00;77.70;;;;;;5056385;28;20198;-83
2023/08/02 11:59:04;;;;;;;1.40;1.30;;;21.10;77.80;;;;;;5056087;28;20173;-85
2023/08/02 12:01:29;;;;;;;1.52;1.42;;;21.10;77.40;;;;;;5058264;28;20150;-84
2023/08/02 12:04:01;;;;;;;1.50;1.40;;;21.10;77.40;;;;;;5055881;28;20158;-84
2023/08/02 12:06:43;;;;;;;1.35;1.25;;;21.10;77.60;;;;;;5056017;28;20166;-85
2023/08/02 12:09:09;;;;;;;1.50;1.40;;;21.10;77.60;;;;;;5055192;28;20193;-86
2023/08/02 12:11:35;;;;;;;1.48;1.38;;;21.10;77.50;;;;;;5070737;28;20249;-85
2023/08/02 12:14:02;;;;;;;1.73;1.48;;;21.10;77.40;;;;;;5055846;28;20181;-86
2023/08/02 12:16:39;;;;;;;1.38;1.27;;;21.10;77.40;;;;;;5056906;28;20186;-84
2023/08/02 12:19:05;;;;;;;1.42;1.33;;;21.10;77.50;;;;;;5056649;28;20211;-84
2023/08/02 12:21:31;;;;;;;1.67;1.58;;;21.10;77.60;;;;;;5056031;28;20238;-84
2023/08/02 12:23:57;;;;;;;1.38;1.27;;;21.10;77.60;;;;;;5055345;28;20162;-86
2023/08/02 12:26:32;;;;;;;1.40;1.30;;;21.10;77.70;;;;;;5054059;28;20517;-85
2023/08/02 12:28:58;;;;;;;1.20;1.10;;;21.00;77.60;;;;;;5055732;28;20629;-86
2023/08/02 12:31:24;;;;;;;1.60;1.50;;;21.10;77.50;;;;;;5055245;28;20163;-84
2023/08/02 12:33:50;;;;;;;1.38;1.27;;;21.10;77.50;;;;;;5053717;28;20640;-86
2023/08/02 12:36:29;;;;;;;1.60;1.40;;;21.10;77.50;;;;;;5053717;28;20295;-86
2023/08/02 12:38:56;;;;;;;1.50;1.40;;;21.10;77.40;;;;;;5053563;28;20609;-87
2023/08/02 12:41:22;;;;;;;1.40;1.30;;;21.10;77.20;;;;;;5053653;28;20204;-84
2023/08/02 12:43:48;;;;;;;1.45;1.35;;;21.10;77.10;;;;;;5070306;28;20163;-85
2023/08/02 12:46:16;;;;;;;1.50;1.40;;;21.10;77.10;;;;;;5054660;28;20241;-84
2023/08/02 12:48:42;;;;;;;1.20;1.10;;;21.10;76.90;;;;;;5054013;28;20174;-85